createdAt,value
2018-12-14T00:00:29.752Z,3.60
2018-12-14T00:02:57.957Z,3.60
2018-12-14T00:05:26.160Z,3.60
2018-12-14T00:07:54.272Z,3.70
2018-12-14T00:10:22.386Z,3.60
2018-12-14T00:12:50.578Z,3.60
2018-12-14T00:15:18.821Z,3.60
2018-12-14T00:17:47.005Z,3.70
2018-12-14T00:20:15.246Z,3.60
2018-12-14T00:22:43.509Z,3.70
2018-12-14T00:25:11.803Z,3.70
2018-12-14T00:27:40.090Z,3.60
2018-12-14T00:30:08.884Z,3.70
2018-12-14T00:32:37.061Z,3.70
2018-12-14T00:35:05.882Z,3.70
2018-12-14T00:37:34.202Z,3.60
2018-12-14T00:40:02.362Z,3.60
2018-12-14T00:42:30.474Z,3.60
2018-12-14T00:44:58.586Z,3.50
2018-12-14T00:47:26.754Z,3.50
2018-12-14T00:49:54.928Z,3.50
2018-12-14T00:52:23.108Z,3.50
2018-12-14T00:54:51.298Z,3.50
2018-12-14T00:57:19.485Z,3.60
2018-12-14T00:59:47.599Z,3.60
2018-12-14T01:02:21.323Z,3.60
2018-12-14T01:04:49.454Z,3.60
2018-12-14T01:07:17.541Z,3.60
2018-12-14T01:09:45.793Z,3.60
2018-12-14T01:12:13.919Z,3.70
2018-12-14T01:14:42.191Z,3.70
2018-12-14T01:17:10.348Z,3.60
2018-12-14T01:19:38.581Z,3.60
2018-12-14T01:22:06.661Z,3.60
2018-12-14T01:24:34.850Z,3.60
2018-12-14T01:27:03.075Z,3.70
2018-12-14T01:29:31.177Z,3.70
2018-12-14T01:31:59.317Z,3.70
2018-12-14T01:34:27.475Z,3.70
2018-12-14T01:36:55.726Z,3.60
2018-12-14T01:39:23.805Z,3.60
2018-12-14T01:41:51.978Z,3.60
2018-12-14T01:44:20.215Z,3.70
2018-12-14T01:46:48.434Z,3.70
2018-12-14T01:49:16.676Z,3.70
2018-12-14T01:51:44.815Z,3.60
2018-12-14T01:54:13.036Z,3.70
2018-12-14T01:56:41.204Z,3.60
2018-12-14T01:59:09.302Z,3.70
2018-12-14T02:01:37.400Z,3.60
2018-12-14T02:04:05.552Z,3.60
2018-12-14T02:06:33.716Z,3.50
2018-12-14T02:09:01.889Z,3.50
2018-12-14T02:11:30.005Z,3.50
2018-12-14T02:13:58.240Z,3.50
2018-12-14T02:16:26.485Z,3.50
2018-12-14T02:18:54.689Z,3.40
2018-12-14T02:21:22.777Z,3.40
2018-12-14T02:23:50.928Z,3.30
2018-12-14T02:26:19.101Z,3.30
2018-12-14T02:28:47.252Z,3.30
2018-12-14T02:31:15.416Z,3.40
2018-12-14T02:33:43.568Z,3.30
2018-12-14T02:36:11.733Z,3.30
2018-12-14T02:38:39.966Z,3.30
2018-12-14T02:41:08.170Z,3.30
2018-12-14T02:43:36.570Z,3.30
2018-12-14T02:46:04.925Z,3.30
2018-12-14T02:48:33.118Z,3.20
2018-12-14T02:51:01.249Z,3.20
2018-12-14T02:53:29.380Z,3.30
2018-12-14T02:55:57.642Z,3.20
2018-12-14T02:58:25.842Z,3.20
2018-12-14T03:00:54.065Z,3.20
2018-12-14T03:03:22.216Z,3.20
2018-12-14T03:05:50.478Z,3.20
2018-12-14T03:08:18.759Z,3.20
2018-12-14T03:10:46.955Z,3.10
2018-12-14T03:13:15.171Z,3.10
2018-12-14T03:15:43.390Z,3.00
2018-12-14T03:18:11.584Z,3.00
2018-12-14T03:20:39.879Z,3.00
2018-12-14T03:23:08.026Z,3.00
2018-12-14T03:25:36.169Z,2.90
2018-12-14T03:28:04.398Z,3.00
2018-12-14T03:30:32.539Z,3.00
2018-12-14T03:33:00.838Z,3.00
2018-12-14T03:35:28.948Z,3.00
2018-12-14T03:37:57.112Z,3.00
2018-12-14T03:40:25.245Z,2.90
2018-12-14T03:42:53.379Z,2.80
2018-12-14T03:45:21.578Z,2.90
2018-12-14T03:47:49.707Z,2.70
2018-12-14T03:50:17.911Z,2.70
2018-12-14T03:52:46.032Z,2.80
2018-12-14T03:55:14.156Z,2.70
2018-12-14T03:57:42.376Z,2.80
2018-12-14T04:00:11.034Z,2.80
2018-12-14T04:02:39.167Z,2.80
2018-12-14T04:05:07.433Z,2.90
2018-12-14T04:07:35.575Z,2.90
2018-12-14T04:10:04.499Z,2.90
2018-12-14T04:12:32.729Z,2.80
2018-12-14T04:15:00.844Z,2.80
2018-12-14T04:17:28.973Z,2.90
2018-12-14T04:19:57.092Z,2.90
2018-12-14T04:22:25.284Z,2.90
2018-12-14T04:24:54.508Z,2.90
2018-12-14T04:27:22.825Z,2.90
2018-12-14T04:29:50.949Z,2.90
2018-12-14T04:32:19.080Z,3.00
2018-12-14T04:34:47.285Z,2.90
2018-12-14T04:37:15.426Z,2.80
2018-12-14T04:39:43.631Z,2.70
2018-12-14T04:42:11.921Z,2.60
2018-12-14T04:44:40.615Z,2.60
2018-12-14T04:47:08.828Z,2.70
2018-12-14T04:49:37.323Z,2.70
2018-12-14T04:52:09.976Z,2.80
2018-12-14T04:54:38.276Z,2.80
2018-12-14T04:57:06.461Z,2.80
2018-12-14T04:59:34.648Z,2.80
2018-12-14T05:02:02.853Z,2.70
2018-12-14T05:04:31.083Z,2.60
2018-12-14T05:06:59.208Z,2.70
2018-12-14T05:09:27.416Z,2.70
2018-12-14T05:11:55.624Z,2.60
2018-12-14T05:14:24.052Z,2.40
2018-12-14T05:16:52.254Z,2.50
2018-12-14T05:19:20.385Z,2.40
2018-12-14T05:21:48.599Z,2.50
2018-12-14T05:24:16.974Z,2.50
2018-12-14T05:26:45.106Z,2.60
2018-12-14T05:29:13.288Z,2.60
2018-12-14T05:31:41.522Z,2.60
2018-12-14T05:34:09.720Z,2.70
2018-12-14T05:36:37.862Z,2.70
2018-12-14T05:39:06.813Z,2.60
2018-12-14T05:41:34.995Z,2.60
2018-12-14T05:44:03.396Z,2.60
2018-12-14T05:46:31.618Z,2.60
2018-12-14T05:48:59.812Z,2.60
2018-12-14T05:51:27.957Z,2.60
2018-12-14T05:53:56.049Z,2.50
2018-12-14T05:56:24.685Z,2.50
2018-12-14T05:58:52.853Z,2.60
2018-12-14T06:01:21.084Z,2.60
2018-12-14T06:03:51.535Z,2.50
2018-12-14T06:06:19.973Z,2.60
2018-12-14T06:08:48.072Z,2.70
2018-12-14T06:11:16.227Z,2.70
2018-12-14T06:13:44.336Z,2.70
2018-12-14T06:16:12.521Z,2.70
2018-12-14T06:18:40.671Z,2.70
2018-12-14T06:21:08.817Z,2.70
2018-12-14T06:23:36.993Z,2.80
2018-12-14T06:26:05.129Z,2.80
2018-12-14T06:28:33.246Z,2.80
2018-12-14T06:31:01.463Z,2.90
2018-12-14T06:33:29.555Z,2.90
2018-12-14T06:35:57.773Z,2.80
2018-12-14T06:38:25.984Z,2.80
2018-12-14T06:40:54.105Z,2.80
2018-12-14T06:43:22.249Z,2.80
2018-12-14T06:45:53.452Z,2.80
2018-12-14T06:48:21.586Z,2.80
2018-12-14T06:50:49.717Z,2.80
2018-12-14T06:53:18.243Z,2.70
2018-12-14T06:55:46.433Z,2.70
2018-12-14T06:58:16.075Z,2.80
2018-12-14T07:00:44.184Z,2.80
2018-12-14T07:03:12.313Z,2.70
2018-12-14T07:05:40.435Z,2.70
2018-12-14T07:08:08.563Z,2.70
2018-12-14T07:10:36.684Z,2.70
2018-12-14T07:13:04.874Z,2.70
2018-12-14T07:15:33.066Z,2.70
2018-12-14T07:18:01.242Z,2.70
2018-12-14T07:20:29.785Z,2.80
2018-12-14T07:22:57.897Z,2.70
2018-12-14T07:25:26.089Z,2.60
2018-12-14T07:27:54.201Z,2.60
2018-12-14T07:30:22.345Z,2.60
2018-12-14T07:32:50.596Z,2.70
2018-12-14T07:35:18.785Z,2.70
2018-12-14T07:37:46.908Z,2.70
2018-12-14T07:40:15.333Z,2.80
2018-12-14T07:42:43.426Z,2.80
2018-12-14T07:45:11.641Z,2.90
2018-12-14T07:47:39.864Z,2.90
2018-12-14T07:50:08.110Z,2.90
2018-12-14T07:52:36.289Z,2.90
2018-12-14T07:55:04.533Z,2.90
2018-12-14T07:57:32.704Z,2.80
2018-12-14T08:00:00.868Z,2.80
2018-12-14T08:02:29.089Z,2.80
2018-12-14T08:04:57.380Z,2.80
2018-12-14T08:07:25.545Z,2.80
2018-12-14T08:09:53.697Z,2.80
2018-12-14T08:12:21.852Z,2.80
2018-12-14T08:14:49.961Z,2.90
2018-12-14T08:17:18.123Z,2.90
2018-12-14T08:19:46.293Z,2.80
2018-12-14T08:22:14.392Z,2.80
2018-12-14T08:24:42.548Z,2.80
2018-12-14T08:27:10.701Z,2.80
2018-12-14T08:29:38.907Z,2.70
2018-12-14T08:32:07.070Z,2.80
2018-12-14T08:34:35.229Z,2.80
2018-12-14T08:37:03.386Z,2.80
2018-12-14T08:39:31.542Z,2.80
2018-12-14T08:41:59.718Z,2.80
2018-12-14T08:44:27.870Z,2.80
2018-12-14T08:46:56.024Z,2.80
2018-12-14T08:49:24.230Z,2.80
2018-12-14T08:51:52.404Z,2.70
2018-12-14T08:54:20.651Z,2.70
2018-12-14T08:56:48.872Z,2.70
2018-12-14T08:59:16.972Z,2.60
2018-12-14T09:01:45.213Z,2.40
2018-12-14T09:04:14.902Z,2.40
2018-12-14T09:06:43.246Z,2.30
2018-12-14T09:09:11.464Z,2.40
2018-12-14T09:11:39.681Z,2.40
2018-12-14T09:14:07.885Z,2.40
2018-12-14T09:16:36.033Z,2.50
2018-12-14T09:19:04.177Z,2.50
2018-12-14T09:21:32.292Z,2.70
2018-12-14T09:24:00.376Z,2.60
2018-12-14T09:26:28.522Z,2.60
2018-12-14T09:28:57.056Z,2.70
2018-12-14T09:31:25.472Z,2.60
2018-12-14T09:33:53.687Z,2.50
2018-12-14T09:36:21.779Z,2.50
2018-12-14T09:38:49.871Z,2.60
2018-12-14T09:41:18.049Z,2.70
2018-12-14T09:43:46.181Z,2.70
2018-12-14T09:46:14.379Z,2.70
2018-12-14T09:48:42.533Z,2.70
2018-12-14T09:51:12.469Z,2.70
2018-12-14T09:53:40.849Z,2.70
2018-12-14T09:56:08.980Z,2.70
2018-12-14T09:58:37.119Z,2.80
2018-12-14T10:01:05.296Z,2.80
2018-12-14T10:03:33.565Z,2.70
2018-12-14T10:06:01.749Z,2.70
2018-12-14T10:08:29.937Z,2.70
2018-12-14T10:10:58.268Z,2.60
2018-12-14T10:13:26.465Z,2.70
2018-12-14T10:15:55.048Z,2.60
2018-12-14T10:18:23.252Z,2.70
2018-12-14T10:20:51.361Z,2.70
2018-12-14T10:23:19.505Z,2.70
2018-12-14T10:25:47.676Z,2.70
2018-12-14T10:28:15.981Z,2.80
2018-12-14T10:30:44.215Z,2.80
2018-12-14T10:33:12.340Z,2.80
2018-12-14T10:35:40.537Z,2.80
2018-12-14T10:38:08.829Z,2.80
2018-12-14T10:40:38.411Z,2.80
2018-12-14T10:43:06.701Z,2.80
2018-12-14T10:45:35.182Z,2.80
2018-12-14T10:48:03.452Z,2.70
2018-12-14T10:50:38.554Z,2.70
2018-12-14T10:53:05.945Z,2.60
2018-12-14T10:55:34.217Z,2.70
2018-12-14T10:58:02.470Z,2.70
2018-12-14T11:00:36.100Z,2.70
2018-12-14T11:03:11.278Z,2.80
2018-12-14T11:05:39.608Z,2.80
2018-12-14T11:08:07.862Z,2.90
2018-12-14T11:10:36.062Z,2.80
2018-12-14T11:13:04.324Z,2.80
2018-12-14T11:15:32.517Z,2.80
2018-12-14T11:18:00.617Z,2.90
2018-12-14T11:20:28.761Z,2.90
2018-12-14T11:22:56.875Z,2.90
2018-12-14T11:25:25.004Z,2.80
2018-12-14T11:27:53.167Z,2.60
2018-12-14T11:30:21.367Z,2.60
2018-12-14T11:32:49.472Z,2.70
2018-12-14T11:35:17.668Z,2.80
2018-12-14T11:37:45.796Z,2.90
2018-12-14T11:40:13.957Z,2.90
2018-12-14T11:42:42.064Z,2.90
2018-12-14T11:45:10.256Z,2.90
2018-12-14T11:47:38.429Z,3.00
2018-12-14T11:50:09.298Z,2.90
2018-12-14T11:52:37.408Z,2.90
2018-12-14T11:55:07.627Z,2.90
2018-12-14T11:57:35.938Z,2.90
2018-12-14T12:00:05.852Z,3.00
2018-12-14T12:02:33.970Z,3.00
2018-12-14T12:05:02.170Z,3.10
2018-12-14T12:07:30.410Z,3.00
2018-12-14T12:12:48.845Z,3.00
2018-12-14T12:15:17.091Z,3.00
2018-12-14T12:17:49.404Z,2.90
2018-12-14T12:20:15.715Z,2.90
2018-12-14T12:22:43.894Z,2.90
2018-12-14T12:25:12.130Z,2.80
2018-12-14T12:27:40.234Z,2.90
2018-12-14T12:30:09.187Z,2.90
2018-12-14T12:32:37.499Z,3.00
2018-12-14T12:35:05.750Z,3.00
2018-12-14T12:37:33.903Z,3.00
2018-12-14T12:40:02.074Z,3.00
2018-12-14T12:42:30.241Z,3.10
2018-12-14T12:44:58.395Z,3.00
2018-12-14T12:47:26.630Z,3.00
2018-12-14T12:49:54.829Z,2.90
2018-12-14T12:52:23.029Z,2.90
2018-12-14T12:54:51.258Z,2.90
2018-12-14T12:57:19.439Z,3.00
2018-12-14T12:59:47.543Z,3.00
2018-12-14T13:02:15.713Z,3.10
2018-12-14T13:04:44.086Z,3.00
2018-12-14T13:07:12.271Z,3.10
2018-12-14T13:09:40.503Z,3.10
2018-12-14T13:12:08.690Z,3.20
2018-12-14T13:14:40.079Z,3.20
2018-12-14T13:17:07.036Z,3.30
2018-12-14T13:19:35.207Z,3.30
2018-12-14T13:22:03.484Z,3.20
2018-12-14T13:24:31.701Z,3.10
2018-12-14T13:26:59.822Z,3.20
2018-12-14T13:29:27.987Z,3.20
2018-12-14T13:31:56.114Z,3.20
2018-12-14T13:34:24.288Z,3.20
2018-12-14T13:36:52.411Z,3.20
2018-12-14T13:39:20.594Z,3.30
2018-12-14T13:41:48.920Z,3.30
2018-12-14T13:44:17.188Z,3.20
2018-12-14T13:46:45.442Z,3.10
2018-12-14T13:49:13.614Z,3.00
2018-12-14T13:51:41.794Z,3.10
2018-12-14T13:54:09.969Z,3.20
2018-12-14T13:56:38.133Z,3.10
2018-12-14T13:59:06.314Z,2.90
2018-12-14T14:01:34.472Z,2.90
2018-12-14T14:04:02.723Z,2.80
2018-12-14T14:06:30.813Z,2.90
2018-12-14T14:08:59.050Z,3.00
2018-12-14T14:11:27.275Z,3.00
2018-12-14T14:13:55.431Z,2.90
2018-12-14T14:16:23.686Z,2.90
2018-12-14T14:18:51.801Z,2.90
2018-12-14T14:21:20.037Z,2.90
2018-12-14T14:23:48.277Z,2.90
2018-12-14T14:26:16.496Z,2.80
2018-12-14T14:28:44.733Z,2.90
2018-12-14T14:31:12.919Z,2.90
2018-12-14T14:33:41.027Z,2.90
2018-12-14T14:36:09.125Z,2.90
2018-12-14T14:38:37.305Z,2.90
2018-12-14T14:41:05.473Z,2.70
2018-12-14T14:43:33.735Z,2.70
2018-12-14T14:46:02.011Z,2.60
2018-12-14T14:48:30.240Z,2.60
2018-12-14T14:50:58.422Z,2.70
2018-12-14T14:53:26.604Z,2.70
2018-12-14T14:55:54.869Z,2.80
2018-12-14T14:58:22.966Z,2.80
2018-12-14T15:00:51.211Z,2.80
2018-12-14T15:03:19.453Z,2.80
2018-12-14T15:05:47.628Z,2.70
2018-12-14T15:08:15.723Z,2.90
2018-12-14T15:10:43.861Z,2.90
2018-12-14T15:13:11.966Z,2.80
2018-12-14T15:15:40.200Z,2.70
2018-12-14T15:18:08.429Z,2.80
2018-12-14T15:20:36.601Z,2.80
2018-12-14T15:23:04.777Z,2.70
2018-12-14T15:25:32.950Z,2.80
2018-12-14T15:28:01.030Z,2.70
2018-12-14T15:30:29.266Z,2.70
2018-12-14T15:32:57.414Z,2.70
2018-12-14T15:35:25.999Z,2.70
2018-12-14T15:37:54.170Z,2.70
2018-12-14T15:40:22.412Z,2.60
2018-12-14T15:42:50.625Z,2.60
2018-12-14T15:45:18.842Z,2.60
2018-12-14T15:47:47.083Z,2.70
2018-12-14T15:50:15.324Z,2.70
2018-12-14T15:52:43.478Z,2.50
2018-12-14T15:55:11.728Z,2.50
2018-12-14T15:57:39.978Z,2.50
2018-12-14T16:00:08.630Z,2.50
2018-12-14T16:02:36.730Z,2.50
2018-12-14T16:05:05.114Z,2.50
2018-12-14T16:07:33.333Z,2.40
2018-12-14T16:10:01.508Z,2.30
2018-12-14T16:12:29.611Z,2.40
2018-12-14T16:14:57.735Z,2.40
2018-12-14T16:17:25.951Z,2.40
2018-12-14T16:19:54.305Z,2.40
2018-12-14T16:22:22.595Z,2.40
2018-12-14T16:24:50.859Z,2.50
2018-12-14T16:27:19.102Z,2.50
2018-12-14T16:29:47.205Z,2.50
2018-12-14T16:32:15.454Z,2.50
2018-12-14T16:34:43.567Z,2.50
2018-12-14T16:37:11.750Z,2.50
2018-12-14T16:39:39.846Z,2.50
2018-12-14T16:42:08.032Z,2.50
2018-12-14T16:44:36.145Z,2.40
2018-12-14T16:47:04.382Z,2.30
2018-12-14T16:49:32.650Z,2.40
2018-12-14T16:52:00.881Z,2.40
2018-12-14T16:54:28.988Z,2.40
2018-12-14T16:56:57.262Z,2.40
2018-12-14T16:59:25.424Z,2.40
2018-12-14T17:01:53.596Z,2.30
2018-12-14T17:04:21.713Z,2.30
2018-12-14T17:06:49.901Z,2.30
2018-12-14T17:09:18.078Z,2.40
2018-12-14T17:11:46.396Z,2.40
2018-12-14T17:14:14.570Z,2.40
2018-12-14T17:16:42.745Z,2.40
2018-12-14T17:19:10.862Z,2.50
2018-12-14T17:21:38.951Z,2.50
2018-12-14T17:24:07.182Z,2.60
2018-12-14T17:26:35.341Z,2.60
2018-12-14T17:29:03.581Z,2.60
2018-12-14T17:31:31.691Z,2.70
2018-12-14T17:33:59.858Z,2.60
2018-12-14T17:36:28.094Z,2.60
2018-12-14T17:38:56.353Z,2.60
2018-12-14T17:41:24.532Z,2.50
2018-12-14T17:43:52.646Z,2.60
2018-12-14T17:46:20.810Z,2.50
2018-12-14T17:48:48.975Z,2.40
2018-12-14T17:51:17.106Z,2.40
2018-12-14T17:53:45.352Z,2.40
2018-12-14T17:56:13.529Z,2.40
2018-12-14T17:58:41.775Z,2.50
2018-12-14T18:01:09.946Z,2.50
2018-12-14T18:03:38.142Z,2.50
2018-12-14T18:06:06.260Z,2.50
2018-12-14T18:08:34.449Z,2.40
2018-12-14T18:11:02.666Z,2.40
2018-12-14T18:13:30.861Z,2.30
2018-12-14T18:15:59.060Z,2.40
2018-12-14T18:18:49.660Z,2.30
2018-12-14T18:21:18.098Z,2.20
2018-12-14T18:23:46.221Z,2.30
2018-12-14T18:26:14.314Z,2.30
2018-12-14T18:28:42.572Z,2.40
2018-12-14T18:31:10.749Z,2.40
2018-12-14T18:33:38.859Z,2.40
2018-12-14T18:36:07.122Z,2.50
2018-12-14T18:38:35.286Z,2.40
2018-12-14T18:41:03.568Z,2.50
2018-12-14T18:43:31.830Z,2.50
2018-12-14T18:46:00.059Z,2.30
2018-12-14T18:48:28.284Z,2.30
2018-12-14T18:50:56.458Z,2.30
2018-12-14T18:53:24.643Z,2.20
2018-12-14T18:55:52.934Z,2.20
2018-12-14T18:58:21.178Z,2.20
2018-12-14T19:00:49.299Z,2.20
2018-12-14T19:03:17.604Z,2.20
2018-12-14T19:05:45.865Z,2.20
2018-12-14T19:08:14.048Z,2.30
2018-12-14T19:10:42.274Z,2.20
2018-12-14T19:13:10.383Z,2.20
2018-12-14T19:15:38.494Z,2.30
2018-12-14T19:18:06.711Z,2.40
2018-12-14T19:20:34.844Z,2.40
2018-12-14T19:23:03.066Z,2.30
2018-12-14T19:25:31.278Z,2.30
2018-12-14T19:27:59.510Z,2.30
2018-12-14T19:30:27.644Z,2.30
2018-12-14T19:32:55.845Z,2.30
2018-12-14T19:35:24.133Z,2.30
2018-12-14T19:37:52.333Z,2.40
2018-12-14T19:40:20.781Z,2.30
2018-12-14T19:42:48.939Z,2.30
2018-12-14T19:45:17.159Z,2.40
2018-12-14T19:47:45.362Z,2.40
2018-12-14T19:50:13.674Z,2.40
2018-12-14T19:52:41.820Z,2.40
2018-12-14T19:55:10.098Z,2.40
2018-12-14T19:57:41.494Z,2.50
2018-12-14T20:00:11.715Z,2.40
2018-12-14T20:02:42.910Z,2.40
2018-12-14T20:05:12.114Z,2.40
2018-12-14T20:07:40.510Z,2.30
2018-12-14T20:10:08.844Z,2.30
2018-12-14T20:12:37.073Z,2.30
2018-12-14T20:15:05.857Z,2.30
2018-12-14T20:17:34.022Z,2.30
2018-12-14T20:20:02.233Z,2.30
2018-12-14T20:22:30.473Z,2.40
2018-12-14T20:24:58.642Z,2.30
2018-12-14T20:27:26.876Z,2.40
2018-12-14T20:29:55.061Z,2.40
2018-12-14T20:32:23.217Z,2.40
2018-12-14T20:34:52.495Z,2.40
2018-12-14T20:37:20.641Z,2.50
2018-12-14T20:39:48.768Z,2.60
2018-12-14T20:42:16.943Z,2.50
2018-12-14T20:44:45.106Z,2.50
2018-12-14T20:47:13.302Z,2.50
2018-12-14T20:49:41.402Z,2.50
2018-12-14T20:52:09.494Z,2.50
2018-12-14T20:54:37.615Z,2.50
2018-12-14T20:57:05.796Z,2.50
2018-12-14T20:59:33.940Z,2.60
2018-12-14T21:02:02.282Z,2.60
2018-12-14T21:04:30.499Z,2.60
2018-12-14T21:06:58.596Z,2.60
2018-12-14T21:09:26.835Z,2.60
2018-12-14T21:11:54.960Z,2.60
2018-12-14T21:14:23.169Z,2.60
2018-12-14T21:16:51.716Z,2.50
2018-12-14T21:19:19.814Z,2.60
2018-12-14T21:21:47.998Z,2.50
2018-12-14T21:24:16.380Z,2.60
2018-12-14T21:26:44.571Z,2.60
2018-12-14T21:29:16.009Z,2.60
2018-12-14T21:31:42.834Z,2.60
2018-12-14T21:34:11.046Z,2.60
2018-12-14T21:36:39.210Z,2.60
2018-12-14T21:39:07.432Z,2.60
2018-12-14T21:41:35.538Z,2.60
2018-12-14T21:44:03.785Z,2.60
2018-12-14T21:46:32.734Z,2.70
2018-12-14T21:49:01.022Z,2.80
2018-12-14T21:51:29.182Z,2.70
2018-12-14T21:53:57.290Z,2.70
2018-12-14T21:56:25.457Z,2.60
2018-12-14T21:58:53.619Z,2.60
2018-12-14T22:01:21.865Z,2.60
2018-12-14T22:03:50.097Z,2.60
2018-12-14T22:06:18.272Z,2.60
2018-12-14T22:08:46.383Z,2.60
2018-12-14T22:11:14.479Z,2.70
2018-12-14T22:13:42.730Z,2.70
2018-12-14T22:16:10.893Z,2.70
2018-12-14T22:18:39.004Z,2.70
2018-12-14T22:21:07.183Z,2.80
2018-12-14T22:23:35.269Z,2.70
2018-12-14T22:26:03.581Z,2.70
2018-12-14T22:28:31.670Z,2.60
2018-12-14T22:30:59.816Z,2.50
2018-12-14T22:33:27.986Z,2.50
2018-12-14T22:35:56.954Z,2.50
2018-12-14T22:38:25.276Z,2.50
2018-12-14T22:40:53.502Z,2.50
2018-12-14T22:43:21.747Z,2.40
2018-12-14T22:48:24.646Z,2.40
2018-12-14T22:50:52.738Z,2.50
2018-12-14T22:53:20.925Z,2.50
2018-12-14T22:55:49.094Z,2.50
2018-12-14T22:58:17.289Z,2.60
2018-12-14T23:00:51.446Z,2.60
2018-12-14T23:03:19.856Z,2.60
2018-12-14T23:05:48.402Z,2.70
2018-12-14T23:08:16.631Z,2.70
2018-12-14T23:10:44.766Z,2.60
2018-12-14T23:13:12.950Z,2.60
2018-12-14T23:15:41.123Z,2.50
2018-12-14T23:18:09.399Z,2.50
2018-12-14T23:20:37.596Z,2.50
2018-12-14T23:23:05.777Z,2.50
2018-12-14T23:25:34.012Z,2.60
2018-12-14T23:28:02.179Z,2.60
2018-12-14T23:30:30.277Z,2.60
2018-12-14T23:32:59.785Z,2.50
2018-12-14T23:35:29.029Z,2.50
2018-12-14T23:37:58.056Z,2.60
2018-12-14T23:40:27.445Z,2.60
2018-12-14T23:42:56.887Z,2.40
2018-12-14T23:45:26.467Z,2.30
2018-12-14T23:47:56.539Z,2.30
2018-12-14T23:50:26.062Z,2.40
2018-12-14T23:52:55.286Z,2.30
2018-12-14T23:55:24.959Z,2.30
2018-12-14T23:57:53.084Z,2.40
